»·PEaware :: N421CS P14-KIFP

N421CS :: P14-KIFP

FLIGHT INFORMATION

Flight Status: Arrived
Operator: Privately registered:
United States
More flights under this callsign
Pilot: Christopher S. (2105)
Aircraft: BEECH AIRCRAFT A90-E90 KING AIR
(BE9L)
More flights by this aircraft type
Origin: P14 Holbrook Mun
United States
Destination: KIFP Laughlin/Bullhead Intl
United States
More flights between these airports :: More routes between these airports
Route: +INW V12 MEMPE
File this flight plan on PilotEdge
Remarks:
Altitude:
(Current/Filed)
10,000ft
Speed:
(Current/Filed)
225kts
Departed: 19-Jan-16 09:52 PM
Arrived: 19-Jan-16 10:41 PM
Distance/Time
Traveled:
217nm/0:49
Distance/Time
To Go:
Arrived

Flight Plot

Page will automatically refresh every two minutes.

Flight plan parsing failed; only flown route is shown


Map Options




Map Legend


Flown Route
Filed Route
Departure Airport
Arrival Airport
Navaid (VOR, NDB)
Fix

Horizontal Profiles

Position Reports

Time Latitude Longitude Heading Altitude Ground
Speed
19-Jan-16 21:46 34.871889 -111.702200 261 10783ft 216kts
19-Jan-16 21:47 34.863704 -111.740889 261 10995ft 215kts
19-Jan-16 21:48 34.855189 -111.780759 261 11215ft 214kts
19-Jan-16 21:49 34.846437 -111.821511 262 11440ft 214kts
19-Jan-16 21:50 34.837762 -111.861792 262 11664ft 213kts
19-Jan-16 21:51 34.830807 -111.894045 262 11843ft 212kts
19-Jan-16 21:52 34.823883 -111.926111 262 12006ft 212kts
19-Jan-16 21:53 34.808682 -111.996651 262 12026ft 222kts
19-Jan-16 21:54 34.792793 -112.069860 261 12025ft 225kts
19-Jan-16 21:55 34.776787 -112.143312 261 12027ft 226kts
19-Jan-16 21:56 34.760854 -112.216200 261 12029ft 227kts
19-Jan-16 21:57 34.744748 -112.289673 261 12032ft 227kts
19-Jan-16 21:58 34.728468 -112.363752 261 12034ft 227kts
19-Jan-16 21:59 34.712143 -112.437814 261 12033ft 227kts
19-Jan-16 22:00 34.704008 -112.511978 278 12034ft 219kts
19-Jan-16 22:01 34.706928 -112.585914 278 12033ft 219kts
19-Jan-16 22:02 34.709703 -112.657754 278 12034ft 219kts
19-Jan-16 22:03 34.712744 -112.730827 278 12036ft 220kts
19-Jan-16 22:04 34.715111 -112.792709 278 12035ft 220kts
19-Jan-16 22:05 34.717867 -112.867247 278 12035ft 220kts
19-Jan-16 22:06 34.720558 -112.941425 278 12035ft 220kts
19-Jan-16 22:07 34.723196 -113.015763 278 12035ft 220kts
19-Jan-16 22:08 34.725785 -113.089853 278 12021ft 221kts
19-Jan-16 22:09 34.728307 -113.163314 278 11996ft 221kts
19-Jan-16 22:10 34.730825 -113.237968 278 11970ft 221kts
19-Jan-16 22:11 34.733285 -113.312640 278 11951ft 221kts
19-Jan-16 22:12 34.735705 -113.386976 278 11951ft 221kts
19-Jan-16 22:13 34.738087 -113.461753 278 11951ft 221kts
19-Jan-16 22:14 34.740520 -113.535605 278 12006ft 219kts
19-Jan-16 22:15 34.742694 -113.609970 278 11950ft 221kts
19-Jan-16 22:16 34.744900 -113.680449 278 11953ft 221kts
19-Jan-16 22:17 34.747298 -113.754909 277 11953ft 221kts
19-Jan-16 22:18 34.749521 -113.829318 277 11951ft 221kts
19-Jan-16 22:19 34.751625 -113.903230 276 11949ft 221kts
19-Jan-16 22:20 34.753682 -113.977454 276 11946ft 221kts
19-Jan-16 22:21 34.755677 -114.052142 276 11945ft 221kts
19-Jan-16 22:22 34.757638 -114.126885 276 11944ft 221kts
19-Jan-16 22:23 34.790695 -114.182431 318 11944ft 212kts
19-Jan-16 22:24 34.835299 -114.229264 320 11943ft 213kts
19-Jan-16 22:25 34.882193 -114.277414 320 11320ft 230kts
19-Jan-16 22:26 34.931615 -114.328095 320 10509ft 233kts
19-Jan-16 22:27 34.978080 -114.375839 320 9491ft 221kts
19-Jan-16 22:28 35.020764 -114.419848 322 8266ft 189kts
19-Jan-16 22:29 35.056421 -114.456587 323 7004ft 138kts
19-Jan-16 22:30 35.084211 -114.485206 319 6042ft 132kts
19-Jan-16 22:31 35.115824 -114.499743 346 5186ft 128kts
19-Jan-16 22:32 35.148120 -114.514897 333 4323ft 136kts
19-Jan-16 22:33 35.182536 -114.530089 349 3517ft 130kts
19-Jan-16 22:34 35.184802 -114.560344 191 2127ft 115kts
19-Jan-16 22:35 35.159546 -114.559680 176 705ft 47kts
19-Jan-16 22:36 35.155896 -114.558552 86 705ft 0kts
19-Jan-16 22:37 35.157909 -114.558174 356 705ft 13kts
19-Jan-16 22:38 35.159998 -114.556676 355 705ft 9kts
19-Jan-16 22:39 35.160877 -114.556417 31 705ft 5kts
19-Jan-16 22:40 35.161125 -114.556576 268 705ft 0kts

Navigation Log

Ident Type
Flight plan parsing failed, navigation log unavailable